Teruhou Maru No.22 — JD3202 — position and weather

sailwx.info

Track history (hours):
 
Tides and Currents Weather Stations Pressure Air Temp Water Temp Dewpoint Dewpoint Depression Visibility Wind Speed Wind Dir Waves Ship Positions

Teruhou Maru No.22

Last reported at 2017-Feb-25 17:33 UTC. Time now 2017-Feb-26 21:35 UTC.
Position N 34°40' E 134°47'.

Length 76 m; draft 5 m.

Type: Cargo ship. MMSI: 431002552.

Date/timePositionNaut miles runAvg speedWind from/ knotsBaromVisibWave heightAir tempDewpointWater temp
2017-Feb-25 17:33N 34°40' E 134°47'9 9.4
2017-Feb-25 16:33N 34°37' E 134°58'7 7.2
2017-Feb-25 15:33N 34°34' E 135°05'  
2017-Feb-21 14:16N 34°07' E 134°59'1413.4
2017-Feb-21 13:14N 34°21' E 134°59'912.8
2017-Feb-21 12:33N 34°30' E 135°01'9 8.5
2017-Feb-21 11:32N 34°37' E 134°55'7 0.3
2017-Feb-20 13:16N 34°41' E 134°49'6 0.2
2017-Feb-19 12:13N 34°37' E 134°54'710.1
2017-Feb-19 11:28N 34°37' E 135°03'1010.3
2017-Feb-19 10:32N 34°27' E 135°05'1211.2
2017-Feb-19 09:30N 34°15' E 135°03'3 3.4
2017-Feb-19 08:33N 34°15' E 135°07'0 0.0
2017-Feb-19 07:34N 34°15' E 135°07'0 0.0
2017-Feb-19 06:30N 34°15' E 135°07'0 0.0
2017-Feb-19 05:31N 34°15' E 135°07'0 0.0
2017-Feb-19 04:32N 34°15' E 135°07'1 0.8
2017-Feb-19 03:33N 34°15' E 135°06'0 0.0
2017-Feb-19 02:33N 34°15' E 135°06'0 0.1
2017-Feb-19 01:33N 34°15' E 135°06'0 0.0
2017-Feb-19 00:27N 34°15' E 135°06'  
Track history (hours):
 
Tides and Currents Weather Stations Pressure Air Temp Water Temp Dewpoint Dewpoint Depression Visibility Wind Speed Wind Dir Waves Ship Positions

Teruhou Maru No.22

Last reported at 2017-Feb-25 17:33 UTC. Time now 2017-Feb-26 21:35 UTC.
Position N 34°40' E 134°47'.

Length 76 m; draft 5 m.

Type: Cargo ship. MMSI: 431002552.

Date/timePositionNaut miles runAvg speedWind from/ knotsBaromVisibWave heightAir tempDewpointWater temp
2017-Feb-25 17:33N 34°40' E 134°47'9 9.4
2017-Feb-25 16:33N 34°37' E 134°58'7 7.2
2017-Feb-25 15:33N 34°34' E 135°05'  
2017-Feb-21 14:16N 34°07' E 134°59'1413.4
2017-Feb-21 13:14N 34°21' E 134°59'912.8
2017-Feb-21 12:33N 34°30' E 135°01'9 8.5
2017-Feb-21 11:32N 34°37' E 134°55'7 0.3
2017-Feb-20 13:16N 34°41' E 134°49'6 0.2
2017-Feb-19 12:13N 34°37' E 134°54'710.1
2017-Feb-19 11:28N 34°37' E 135°03'1010.3
2017-Feb-19 10:32N 34°27' E 135°05'1211.2
2017-Feb-19 09:30N 34°15' E 135°03'3 3.4
2017-Feb-19 08:33N 34°15' E 135°07'0 0.0
2017-Feb-19 07:34N 34°15' E 135°07'0 0.0
2017-Feb-19 06:30N 34°15' E 135°07'0 0.0
2017-Feb-19 05:31N 34°15' E 135°07'0 0.0
2017-Feb-19 04:32N 34°15' E 135°07'1 0.8
2017-Feb-19 03:33N 34°15' E 135°06'0 0.0
2017-Feb-19 02:33N 34°15' E 135°06'0 0.1
2017-Feb-19 01:33N 34°15' E 135°06'0 0.0
2017-Feb-19 00:27N 34°15' E 135°06'  

Dump ship's entire track history